createdAt,value
2018-08-30T00:00:26.784Z,23.33
2018-08-30T00:02:54.774Z,21.13
2018-08-30T00:05:22.742Z,18.57
2018-08-30T00:07:50.689Z,19.27
2018-08-30T00:10:18.753Z,17.83
2018-08-30T00:12:46.771Z,16.27
2018-08-30T00:15:14.844Z,14.43
2018-08-30T00:17:42.876Z,13.50
2018-08-30T00:20:10.835Z,12.47
2018-08-30T00:22:38.790Z,13.60
2018-08-30T00:25:06.770Z,12.47
2018-08-30T00:27:34.802Z,13.00
2018-08-30T00:30:02.818Z,13.13
2018-08-30T00:32:30.823Z,13.60
2018-08-30T00:34:58.846Z,12.63
2018-08-30T00:37:26.799Z,12.93
2018-08-30T00:39:54.799Z,12.83
2018-08-30T00:42:22.790Z,12.63
2018-08-30T00:44:50.787Z,13.60
2018-08-30T00:47:21.457Z,13.37
2018-08-30T00:49:50.726Z,14.67
2018-08-30T00:52:19.194Z,15.47
2018-08-30T00:54:47.447Z,15.73
2018-08-30T00:57:15.803Z,16.40
2018-08-30T00:59:43.759Z,16.20
2018-08-30T01:02:11.719Z,16.80
2018-08-30T01:04:39.705Z,17.23
2018-08-30T01:07:07.663Z,17.70
2018-08-30T01:09:35.658Z,18.30
2018-08-30T01:12:03.633Z,17.80
2018-08-30T01:14:31.602Z,18.40
2018-08-30T01:16:59.575Z,19.97
2018-08-30T01:19:27.639Z,17.57
2018-08-30T01:21:55.580Z,18.30
2018-08-30T01:24:23.660Z,18.73
2018-08-30T01:26:51.634Z,19.03
2018-08-30T01:29:19.602Z,19.50
2018-08-30T01:31:47.683Z,20.40
2018-08-30T01:34:15.668Z,21.80
2018-08-30T01:36:44.442Z,21.20
2018-08-30T01:39:12.431Z,22.00
2018-08-30T01:41:41.887Z,20.97
2018-08-30T01:44:10.239Z,22.53
2018-08-30T01:46:38.223Z,22.13
2018-08-30T01:49:06.183Z,24.40
2018-08-30T01:51:34.135Z,23.50
2018-08-30T01:54:02.091Z,23.80
2018-08-30T01:56:30.128Z,22.53
2018-08-30T01:58:58.092Z,24.47
2018-08-30T02:01:26.067Z,24.07
2018-08-30T02:03:54.035Z,23.27
2018-08-30T02:06:21.980Z,23.80
2018-08-30T02:08:50.088Z,27.63
2018-08-30T02:11:18.050Z,27.17
2018-08-30T02:13:46.008Z,25.10
2018-08-30T02:16:14.048Z,24.67
2018-08-30T02:18:42.041Z,26.03
2018-08-30T02:21:09.983Z,25.97
2018-08-30T02:23:37.967Z,25.70
2018-08-30T02:26:05.977Z,27.00
2018-08-30T02:28:33.977Z,25.20
2018-08-30T02:31:01.968Z,27.77
2018-08-30T02:33:30.268Z,30.67
2018-08-30T02:35:58.231Z,26.33
2018-08-30T02:38:26.196Z,25.07
2018-08-30T02:40:54.137Z,27.53
2018-08-30T02:43:22.107Z,25.27
2018-08-30T02:45:50.104Z,25.67
2018-08-30T02:48:18.060Z,25.17
2018-08-30T02:50:46.072Z,26.00
2018-08-30T02:53:14.051Z,28.80
2018-08-30T02:55:42.048Z,28.87
2018-08-30T02:58:10.231Z,24.63
2018-08-30T03:00:38.184Z,26.10
2018-08-30T03:03:06.173Z,25.67
2018-08-30T03:05:34.140Z,28.87
2018-08-30T03:08:02.152Z,24.20
2018-08-30T03:10:30.139Z,26.40
2018-08-30T03:12:58.121Z,25.57
2018-08-30T03:15:26.089Z,24.77
2018-08-30T03:17:54.077Z,24.97
2018-08-30T03:20:22.033Z,25.97
2018-08-30T03:22:50.092Z,27.20
2018-08-30T03:25:18.081Z,23.43
2018-08-30T03:27:46.077Z,26.40
2018-08-30T03:30:14.163Z,23.77
2018-08-30T03:32:42.005Z,22.83
2018-08-30T03:35:10.073Z,24.80
2018-08-30T03:37:38.053Z,23.13
2018-08-30T03:40:06.061Z,24.27
2018-08-30T03:42:34.044Z,22.13
2018-08-30T03:45:02.321Z,23.30
2018-08-30T03:47:30.637Z,23.60
2018-08-30T03:49:58.890Z,25.63
2018-08-30T03:52:27.510Z,25.83
2018-08-30T03:54:55.749Z,22.77
2018-08-30T03:57:23.782Z,22.77
2018-08-30T03:59:51.761Z,23.07
2018-08-30T04:02:19.725Z,25.20
2018-08-30T04:04:47.806Z,24.50
2018-08-30T04:07:15.744Z,23.23
2018-08-30T04:09:43.708Z,24.50
2018-08-30T04:12:11.833Z,24.10
2018-08-30T04:14:39.802Z,27.03
2018-08-30T04:17:07.745Z,24.03
2018-08-30T04:19:35.773Z,28.00
2018-08-30T04:22:04.163Z,24.73
2018-08-30T04:24:32.398Z,24.30
2018-08-30T04:27:00.772Z,22.80
2018-08-30T04:29:28.950Z,23.63
2018-08-30T04:31:57.299Z,24.20
2018-08-30T04:34:25.537Z,25.17
2018-08-30T04:36:53.851Z,23.80
2018-08-30T04:39:22.090Z,26.50
2018-08-30T04:41:50.396Z,23.83
2018-08-30T04:44:18.630Z,23.87
2018-08-30T04:46:47.163Z,23.17
2018-08-30T04:49:15.402Z,23.03
2018-08-30T04:51:43.633Z,23.50
2018-08-30T04:54:11.890Z,24.97
2018-08-30T04:56:40.218Z,23.23
2018-08-30T04:59:08.458Z,24.57
2018-08-30T05:01:36.709Z,24.87
2018-08-30T05:04:04.782Z,26.60
2018-08-30T05:06:32.882Z,23.47
2018-08-30T05:09:00.871Z,24.90
2018-08-30T05:11:28.888Z,25.77
2018-08-30T05:13:56.829Z,23.90
2018-08-30T05:16:24.951Z,28.47
2018-08-30T05:18:52.918Z,23.03
2018-08-30T05:23:55.846Z,26.30
2018-08-30T05:26:23.819Z,25.30
2018-08-30T05:28:51.850Z,21.53
2018-08-30T05:31:19.873Z,23.80
2018-08-30T05:33:47.950Z,23.63
2018-08-30T05:36:15.967Z,26.37
2018-08-30T05:38:44.179Z,22.03
2018-08-30T05:41:12.147Z,23.30
2018-08-30T05:43:40.155Z,24.57
2018-08-30T05:46:08.132Z,23.53
2018-08-30T05:48:36.303Z,28.03
2018-08-30T05:51:04.463Z,22.93
2018-08-30T05:53:32.455Z,23.00
2018-08-30T05:56:00.718Z,40.77
2018-08-30T05:58:28.666Z,28.63
2018-08-30T06:00:56.667Z,21.40
2018-08-30T06:03:24.635Z,23.00
2018-08-30T06:05:52.607Z,24.93
2018-08-30T06:08:20.712Z,19.80
2018-08-30T06:10:48.643Z,19.77
2018-08-30T06:13:16.660Z,25.17
2018-08-30T06:15:44.628Z,18.03
2018-08-30T06:18:12.608Z,18.97
2018-08-30T06:20:40.592Z,22.20
2018-08-30T06:23:08.604Z,21.37
2018-08-30T06:25:36.608Z,19.50
2018-08-30T06:28:04.620Z,20.80
2018-08-30T06:30:32.612Z,18.07
2018-08-30T06:33:00.652Z,20.10
2018-08-30T06:35:28.633Z,18.00
2018-08-30T06:37:56.680Z,23.03
2018-08-30T06:40:24.675Z,16.13
2018-08-30T06:42:52.680Z,23.03
2018-08-30T06:45:20.844Z,14.90
2018-08-30T06:47:49.040Z,18.43
2018-08-30T06:50:17.286Z,18.33
2018-08-30T06:52:45.553Z,21.53
2018-08-30T06:55:13.769Z,19.10
2018-08-30T06:57:41.977Z,17.37
2018-08-30T07:00:10.477Z,17.43
2018-08-30T07:02:38.697Z,20.23
2018-08-30T07:05:06.964Z,17.03
2018-08-30T07:07:35.273Z,17.77
2018-08-30T07:10:03.572Z,14.47
2018-08-30T07:12:31.862Z,14.27
2018-08-30T07:15:00.356Z,15.40
2018-08-30T07:17:28.552Z,13.00
2018-08-30T07:19:57.421Z,14.60
2018-08-30T07:22:25.664Z,11.93
2018-08-30T07:24:53.846Z,14.93
2018-08-30T07:27:21.857Z,17.47
2018-08-30T07:29:49.897Z,12.37
2018-08-30T07:32:17.897Z,15.93
2018-08-30T07:34:46.015Z,17.23
2018-08-30T07:37:13.889Z,14.07
2018-08-30T07:39:41.873Z,17.07
2018-08-30T07:42:09.841Z,14.63
2018-08-30T07:44:37.986Z,12.20
2018-08-30T07:47:06.312Z,17.93
2018-08-30T07:49:34.565Z,12.07
2018-08-30T07:52:02.863Z,14.40
2018-08-30T07:54:31.121Z,12.13
2018-08-30T07:56:59.425Z,13.23
2018-08-30T07:59:27.426Z,12.50
2018-08-30T08:01:55.499Z,14.37
2018-08-30T08:04:23.497Z,12.93
2018-08-30T08:06:51.537Z,15.47
2018-08-30T08:09:19.544Z,12.03
2018-08-30T08:11:48.075Z,12.63
2018-08-30T08:14:15.997Z,11.40
2018-08-30T08:16:44.121Z,8.20
2018-08-30T08:19:12.132Z,9.10
2018-08-30T08:21:40.074Z,10.10
2018-08-30T08:24:08.074Z,11.00
2018-08-30T08:26:36.057Z,13.47
2018-08-30T08:29:04.217Z,11.63
2018-08-30T08:31:32.290Z,12.87
2018-08-30T08:34:00.390Z,9.97
2018-08-30T08:36:28.689Z,12.73
2018-08-30T08:38:56.673Z,10.20
2018-08-30T08:41:24.885Z,13.50
2018-08-30T08:43:53.119Z,10.93
2018-08-30T08:46:21.338Z,9.00
2018-08-30T08:48:49.669Z,14.07
2018-08-30T08:51:18.090Z,10.93
2018-08-30T08:53:46.277Z,10.93
2018-08-30T08:56:14.050Z,8.23
2018-08-30T08:58:42.059Z,9.00
2018-08-30T09:01:10.054Z,11.80
2018-08-30T09:03:38.611Z,8.03
2018-08-30T09:06:06.578Z,10.67
2018-08-30T09:08:34.669Z,11.77
2018-08-30T09:11:02.686Z,7.87
2018-08-30T09:13:30.729Z,11.90
2018-08-30T09:15:58.750Z,10.17
2018-08-30T09:18:26.717Z,9.80
2018-08-30T09:20:54.654Z,9.13
2018-08-30T09:23:22.626Z,13.30
2018-08-30T09:25:50.746Z,12.10
2018-08-30T09:28:18.745Z,10.77
2018-08-30T09:30:46.742Z,9.63
2018-08-30T09:33:14.886Z,12.10
2018-08-30T09:35:42.953Z,9.20
2018-08-30T09:38:10.979Z,8.73
2018-08-30T09:40:39.278Z,9.63
2018-08-30T09:43:07.846Z,11.60
2018-08-30T09:45:36.075Z,9.97
2018-08-30T09:48:04.507Z,8.93
2018-08-30T09:50:32.906Z,9.17
2018-08-30T09:53:01.154Z,7.90
2018-08-30T09:55:29.531Z,11.23
2018-08-30T09:57:57.810Z,8.73
2018-08-30T10:00:31.334Z,6.57
2018-08-30T10:02:59.305Z,9.60
2018-08-30T10:05:27.273Z,7.03
2018-08-30T10:07:55.294Z,7.60
2018-08-30T10:10:23.547Z,11.80
2018-08-30T10:12:51.759Z,7.70
2018-08-30T10:15:20.122Z,8.47
2018-08-30T10:17:48.387Z,8.83
2018-08-30T10:20:16.639Z,6.63
2018-08-30T10:22:44.883Z,9.10
2018-08-30T10:25:13.308Z,7.43
2018-08-30T10:27:41.296Z,8.73
2018-08-30T10:30:09.679Z,7.37
2018-08-30T10:32:38.335Z,9.20
2018-08-30T10:35:06.571Z,7.93
2018-08-30T10:37:34.879Z,9.27
2018-08-30T10:40:03.467Z,6.70
2018-08-30T10:42:31.755Z,7.77
2018-08-30T10:44:59.982Z,6.57
2018-08-30T10:47:28.224Z,8.00
2018-08-30T10:49:56.488Z,7.87
2018-08-30T10:52:24.675Z,7.47
2018-08-30T10:54:52.871Z,8.17
2018-08-30T10:57:21.138Z,7.90
2018-08-30T10:59:49.354Z,10.53
2018-08-30T11:02:17.592Z,7.40
2018-08-30T11:04:45.872Z,6.40
2018-08-30T11:07:14.619Z,8.67
2018-08-30T11:09:42.840Z,7.73
2018-08-30T11:12:11.133Z,6.10
2018-08-30T11:14:39.368Z,10.87
2018-08-30T11:17:08.661Z,9.10
2018-08-30T11:19:36.911Z,11.83
2018-08-30T11:22:05.168Z,7.93
2018-08-30T11:24:33.788Z,7.20
2018-08-30T11:27:02.047Z,7.03
2018-08-30T11:29:30.328Z,7.17
2018-08-30T11:31:58.640Z,7.13
2018-08-30T11:34:26.948Z,7.17
2018-08-30T11:36:55.217Z,7.50
2018-08-30T11:39:23.764Z,10.27
2018-08-30T11:41:52.030Z,7.87
2018-08-30T11:44:20.229Z,9.43
2018-08-30T11:46:48.476Z,11.83
2018-08-30T11:49:16.736Z,9.20
2018-08-30T11:51:44.988Z,6.53
2018-08-30T11:54:13.193Z,6.97
2018-08-30T11:56:41.384Z,5.77
2018-08-30T11:59:09.785Z,9.40
2018-08-30T12:01:38.064Z,10.47
2018-08-30T12:04:06.373Z,8.50
2018-08-30T12:06:34.880Z,9.17
2018-08-30T12:09:03.466Z,8.13
2018-08-30T12:11:31.699Z,6.00
2018-08-30T12:13:59.950Z,7.13
2018-08-30T12:16:28.201Z,8.13
2018-08-30T12:18:56.531Z,10.37
2018-08-30T12:21:24.718Z,11.83
2018-08-30T12:23:53.069Z,10.60
2018-08-30T12:26:21.342Z,5.50
2018-08-30T12:28:49.647Z,6.30
2018-08-30T12:31:17.896Z,9.07
2018-08-30T12:33:45.970Z,15.23
2018-08-30T12:36:13.927Z,12.70
2018-08-30T12:38:41.908Z,10.83
2018-08-30T12:41:09.885Z,8.83
2018-08-30T12:43:38.633Z,5.73
2018-08-30T12:46:06.384Z,7.47
2018-08-30T12:48:34.423Z,8.10
2018-08-30T12:51:02.488Z,8.33
2018-08-30T12:53:30.434Z,6.63
2018-08-30T12:55:58.549Z,7.90
2018-08-30T12:58:26.986Z,13.80
2018-08-30T13:00:54.977Z,6.70
2018-08-30T13:03:22.952Z,7.67
2018-08-30T13:05:51.035Z,9.50
2018-08-30T13:08:18.977Z,5.57
2018-08-30T13:10:46.999Z,6.70
2018-08-30T13:13:14.959Z,8.43
2018-08-30T13:15:43.062Z,8.57
2018-08-30T13:18:11.199Z,6.20
2018-08-30T13:20:39.328Z,9.37
2018-08-30T13:23:07.306Z,7.13
2018-08-30T13:25:35.346Z,9.20
2018-08-30T13:28:03.525Z,6.93
2018-08-30T13:30:32.164Z,9.27
2018-08-30T13:33:00.746Z,8.87
2018-08-30T13:35:28.887Z,10.83
2018-08-30T13:37:57.340Z,11.83
2018-08-30T13:40:25.555Z,8.93
2018-08-30T13:42:53.821Z,6.47
2018-08-30T13:45:22.244Z,8.77
2018-08-30T13:47:50.760Z,12.13
2018-08-30T13:50:19.093Z,8.17
2018-08-30T13:52:47.441Z,10.13
2018-08-30T13:55:15.707Z,12.97
2018-08-30T13:57:44.055Z,7.10
2018-08-30T14:00:12.211Z,10.80
2018-08-30T14:02:39.868Z,7.50
2018-08-30T14:05:07.862Z,6.10
2018-08-30T14:07:35.877Z,6.80
2018-08-30T14:10:04.406Z,8.33
2018-08-30T14:12:31.992Z,8.53
2018-08-30T14:14:59.932Z,6.03
2018-08-30T14:17:27.647Z,8.67
2018-08-30T14:19:55.721Z,7.83
2018-08-30T14:22:23.704Z,5.40
2018-08-30T14:24:51.695Z,9.93
2018-08-30T14:27:19.700Z,6.00
2018-08-30T14:29:47.852Z,6.67
2018-08-30T14:32:15.871Z,10.20
2018-08-30T14:34:43.937Z,8.40
2018-08-30T14:37:11.984Z,6.50
2018-08-30T14:39:40.031Z,6.07
2018-08-30T14:42:08.396Z,7.57
2018-08-30T14:44:36.364Z,5.47
2018-08-30T14:47:04.643Z,8.53
2018-08-30T14:49:32.496Z,9.77
2018-08-30T14:52:00.484Z,8.83
2018-08-30T14:54:28.539Z,6.83
2018-08-30T14:56:56.484Z,6.23
2018-08-30T14:59:24.483Z,7.07
2018-08-30T15:01:52.476Z,9.63
2018-08-30T15:04:20.492Z,11.97
2018-08-30T15:06:48.490Z,13.13
2018-08-30T15:09:16.517Z,9.33
2018-08-30T15:11:44.664Z,8.03
2018-08-30T15:14:12.672Z,15.73
2018-08-30T15:16:40.653Z,5.40
2018-08-30T15:19:08.616Z,8.87
2018-08-30T15:21:36.691Z,15.43
2018-08-30T15:24:04.605Z,9.43
2018-08-30T15:26:32.651Z,12.37
2018-08-30T15:29:00.849Z,11.40
2018-08-30T15:31:28.824Z,7.53
2018-08-30T15:33:57.218Z,9.97
2018-08-30T15:36:25.165Z,8.53
2018-08-30T15:38:53.144Z,10.47
2018-08-30T15:41:21.281Z,7.83
2018-08-30T15:43:49.117Z,13.30
2018-08-30T15:46:17.157Z,8.67
2018-08-30T15:48:45.289Z,14.63
2018-08-30T15:51:13.549Z,7.87
2018-08-30T15:53:41.713Z,8.93
2018-08-30T15:56:09.999Z,10.57
2018-08-30T15:58:38.169Z,9.80
2018-08-30T16:01:06.397Z,10.53
2018-08-30T16:03:35.665Z,13.63
2018-08-30T16:06:04.554Z,7.50
2018-08-30T16:08:32.881Z,12.07
2018-08-30T16:11:01.689Z,11.77
2018-08-30T16:13:29.977Z,11.70
2018-08-30T16:15:58.437Z,8.97
2018-08-30T16:18:26.709Z,10.20
2018-08-30T16:20:54.845Z,9.80
2018-08-30T16:23:26.473Z,8.90
2018-08-30T16:25:54.808Z,10.33
2018-08-30T16:28:23.970Z,12.13
2018-08-30T16:30:52.292Z,9.63
2018-08-30T16:33:20.501Z,10.17
2018-08-30T16:35:48.857Z,7.40
2018-08-30T16:38:17.001Z,11.63
2018-08-30T16:40:45.833Z,11.87
2018-08-30T16:43:14.117Z,15.83
2018-08-30T16:45:42.681Z,13.00
2018-08-30T16:48:10.903Z,15.43
2018-08-30T16:50:39.117Z,11.47
2018-08-30T16:53:07.383Z,7.70
2018-08-30T16:55:36.268Z,8.90
2018-08-30T16:58:04.421Z,12.27
2018-08-30T17:00:32.745Z,9.63
2018-08-30T17:03:01.636Z,15.97
2018-08-30T17:05:30.282Z,8.50
2018-08-30T17:07:59.272Z,7.80
2018-08-30T17:10:27.769Z,10.83
2018-08-30T17:12:56.264Z,9.67
2018-08-30T17:15:24.569Z,13.17
2018-08-30T17:17:52.868Z,7.23
2018-08-30T17:20:24.833Z,8.83
2018-08-30T17:22:53.048Z,10.00
2018-08-30T17:25:21.354Z,8.33
2018-08-30T17:27:49.584Z,11.40
2018-08-30T17:30:17.803Z,9.83
2018-08-30T17:32:46.049Z,8.93
2018-08-30T17:35:14.248Z,7.67
2018-08-30T17:37:42.540Z,12.30
2018-08-30T17:40:10.808Z,7.30
2018-08-30T17:42:39.053Z,12.37
2018-08-30T17:45:07.335Z,12.80
2018-08-30T17:47:35.521Z,7.93
2018-08-30T17:50:03.809Z,7.10
2018-08-30T17:52:32.038Z,7.80
2018-08-30T17:55:00.320Z,7.27
2018-08-30T17:57:28.569Z,11.63
2018-08-30T17:59:56.807Z,5.23
2018-08-30T18:02:25.049Z,7.63
2018-08-30T18:04:53.290Z,10.40
2018-08-30T18:07:22.109Z,11.07
2018-08-30T18:09:50.385Z,10.27
2018-08-30T18:12:19.132Z,10.57
2018-08-30T18:14:47.281Z,13.17
2018-08-30T18:17:15.704Z,11.40
2018-08-30T18:19:43.929Z,8.80
2018-08-30T18:22:12.149Z,9.37
2018-08-30T18:24:40.371Z,9.87
2018-08-30T18:27:08.628Z,10.03
2018-08-30T18:29:36.900Z,20.87
2018-08-30T18:32:05.130Z,7.77
2018-08-30T18:34:33.337Z,6.60
2018-08-30T18:37:01.583Z,7.57
2018-08-30T18:39:29.781Z,10.37
2018-08-30T18:41:57.989Z,8.93
2018-08-30T18:44:26.246Z,8.30
2018-08-30T18:46:54.474Z,8.60
2018-08-30T18:49:22.685Z,6.63
2018-08-30T18:51:50.918Z,7.27
2018-08-30T18:54:19.190Z,11.40
2018-08-30T18:56:47.408Z,9.50
2018-08-30T18:59:16.426Z,6.97
2018-08-30T19:01:44.675Z,7.20
2018-08-30T19:04:13.022Z,10.90
2018-08-30T19:06:41.233Z,6.37
2018-08-30T19:09:10.819Z,10.17
2018-08-30T19:11:39.170Z,5.87
2018-08-30T19:14:07.507Z,7.30
2018-08-30T19:16:41.233Z,7.30
2018-08-30T19:19:18.774Z,6.13
2018-08-30T19:21:47.036Z,9.97
2018-08-30T19:24:20.571Z,5.97
2018-08-30T19:26:48.866Z,10.23
2018-08-30T19:29:16.810Z,12.13
2018-08-30T19:31:44.987Z,8.00
2018-08-30T19:34:13.091Z,6.60
2018-08-30T19:36:40.991Z,10.63
2018-08-30T19:39:09.550Z,8.23
2018-08-30T19:41:37.490Z,8.33
2018-08-30T19:44:05.515Z,5.63
2018-08-30T19:46:33.595Z,6.53
2018-08-30T19:49:01.556Z,6.20
2018-08-30T19:51:29.608Z,7.00
2018-08-30T19:53:58.512Z,7.80
2018-08-30T19:56:26.551Z,6.50
2018-08-30T19:58:54.524Z,5.47
2018-08-30T20:01:22.538Z,7.17
2018-08-30T20:03:50.580Z,7.37
2018-08-30T20:06:18.551Z,8.00
2018-08-30T20:08:46.504Z,6.27
2018-08-30T20:11:14.620Z,7.23
2018-08-30T20:13:42.580Z,12.40
2018-08-30T20:16:10.535Z,8.27
2018-08-30T20:18:38.735Z,10.37
2018-08-30T20:21:06.939Z,8.67
2018-08-30T20:23:35.259Z,8.43
2018-08-30T20:26:03.516Z,7.07
2018-08-30T20:28:31.743Z,8.03
2018-08-30T20:30:59.995Z,11.10
2018-08-30T20:33:28.239Z,8.67
2018-08-30T20:35:56.515Z,5.30
2018-08-30T20:38:24.735Z,6.73
2018-08-30T20:40:53.039Z,7.37
2018-08-30T20:43:21.323Z,8.13
2018-08-30T20:45:49.556Z,7.90
2018-08-30T20:48:17.760Z,8.67
2018-08-30T20:50:45.962Z,12.23
2018-08-30T20:53:14.186Z,4.27
2018-08-30T20:55:42.403Z,7.20
2018-08-30T20:58:10.596Z,4.80
2018-08-30T21:00:38.835Z,6.47
2018-08-30T21:03:07.096Z,5.23
2018-08-30T21:05:35.299Z,7.73
2018-08-30T21:08:03.507Z,6.77
2018-08-30T21:10:31.725Z,5.90
2018-08-30T21:12:59.937Z,9.47
2018-08-30T21:15:28.172Z,7.63
2018-08-30T21:17:56.380Z,5.13
2018-08-30T21:20:24.627Z,6.83
2018-08-30T21:22:52.916Z,9.33
2018-08-30T21:25:21.160Z,6.47
2018-08-30T21:27:49.397Z,8.77
2018-08-30T21:30:17.623Z,6.07
2018-08-30T21:32:45.845Z,9.43
2018-08-30T21:35:14.080Z,7.43
2018-08-30T21:37:42.280Z,8.13
2018-08-30T21:40:10.500Z,6.33
2018-08-30T21:42:38.716Z,8.40
2018-08-30T21:45:07.004Z,4.63
2018-08-30T21:47:35.245Z,8.87
2018-08-30T21:50:03.449Z,8.97
2018-08-30T21:52:31.664Z,8.73
2018-08-30T21:54:59.907Z,6.13
2018-08-30T21:57:28.088Z,14.13
2018-08-30T21:59:56.328Z,9.00
2018-08-30T22:02:24.657Z,6.23
2018-08-30T22:04:52.838Z,9.50
2018-08-30T22:07:21.080Z,7.23
2018-08-30T22:09:49.270Z,5.77
2018-08-30T22:12:17.498Z,6.67
2018-08-30T22:14:45.473Z,10.77
2018-08-30T22:17:13.438Z,7.83
2018-08-30T22:19:41.390Z,6.03
2018-08-30T22:22:09.354Z,5.73
2018-08-30T22:24:37.494Z,5.83
2018-08-30T22:27:05.458Z,4.90
2018-08-30T22:29:33.458Z,9.60
2018-08-30T22:32:01.446Z,9.90
2018-08-30T22:34:29.442Z,14.37
2018-08-30T22:36:57.403Z,5.37
2018-08-30T22:39:25.371Z,7.10
2018-08-30T22:41:53.390Z,5.83
2018-08-30T22:44:21.354Z,7.37
2018-08-30T22:46:49.395Z,6.23
2018-08-30T22:49:17.361Z,9.17
2018-08-30T22:51:45.554Z,5.47
2018-08-30T22:54:13.786Z,8.17
2018-08-30T22:56:42.054Z,8.27
2018-08-30T22:59:10.298Z,6.70
2018-08-30T23:01:38.554Z,7.33
2018-08-30T23:04:06.778Z,9.50
2018-08-30T23:06:35.032Z,8.43
2018-08-30T23:09:03.731Z,5.17
2018-08-30T23:11:31.927Z,5.43
2018-08-30T23:14:00.155Z,6.97
2018-08-30T23:16:28.383Z,4.97
2018-08-30T23:18:56.687Z,7.37
2018-08-30T23:21:24.754Z,6.60
2018-08-30T23:23:52.755Z,6.60
2018-08-30T23:26:20.719Z,15.17
2018-08-30T23:28:48.955Z,6.90
2018-08-30T23:31:17.194Z,6.33
2018-08-30T23:33:45.391Z,9.90
2018-08-30T23:36:13.630Z,9.47
2018-08-30T23:38:41.851Z,7.73
2018-08-30T23:41:10.031Z,7.50
2018-08-30T23:43:38.231Z,6.37
2018-08-30T23:46:06.431Z,8.40
2018-08-30T23:48:34.650Z,6.43
2018-08-30T23:51:02.849Z,9.03
2018-08-30T23:53:31.043Z,6.27
2018-08-30T23:55:59.263Z,6.50
2018-08-30T23:58:38.831Z,5.77
